sensor_id;sensor_type;location;lat;lon;timestamp;P1;durP1;ratioP1;P2;durP2;ratioP2
66494;SDS011;53319;51.982;5.916;2022-07-29T00:00:04;4.38;;;1.85;;
66494;SDS011;53319;51.982;5.916;2022-07-29T00:02:37;4.72;;;2.00;;
66494;SDS011;53319;51.982;5.916;2022-07-29T00:05:08;4.57;;;1.85;;
66494;SDS011;53319;51.982;5.916;2022-07-29T00:07:39;3.72;;;1.75;;
66494;SDS011;53319;51.982;5.916;2022-07-29T00:10:08;3.25;;;1.70;;
66494;SDS011;53319;51.982;5.916;2022-07-29T00:12:37;5.78;;;2.00;;
66494;SDS011;53319;51.982;5.916;2022-07-29T00:15:06;2.90;;;1.60;;
66494;SDS011;53319;51.982;5.916;2022-07-29T00:17:39;5.47;;;2.00;;
66494;SDS011;53319;51.982;5.916;2022-07-29T00:20:08;3.85;;;1.67;;
66494;SDS011;53319;51.982;5.916;2022-07-29T00:22:38;3.25;;;1.65;;
66494;SDS011;53319;51.982;5.916;2022-07-29T00:25:07;3.85;;;1.75;;
66494;SDS011;53319;51.982;5.916;2022-07-29T00:27:36;4.75;;;1.80;;
66494;SDS011;53319;51.982;5.916;2022-07-29T00:30:06;3.95;;;1.52;;
66494;SDS011;53319;51.982;5.916;2022-07-29T00:32:39;4.05;;;1.88;;
66494;SDS011;53319;51.982;5.916;2022-07-29T00:35:08;4.53;;;1.67;;
66494;SDS011;53319;51.982;5.916;2022-07-29T00:37:50;3.08;;;2.03;;
66494;SDS011;53319;51.982;5.916;2022-07-29T00:40:19;3.90;;;1.83;;
66494;SDS011;53319;51.982;5.916;2022-07-29T00:42:49;2.85;;;1.63;;
66494;SDS011;53319;51.982;5.916;2022-07-29T00:45:19;5.60;;;2.20;;
66494;SDS011;53319;51.982;5.916;2022-07-29T00:47:50;8.98;;;2.10;;
66494;SDS011;53319;51.982;5.916;2022-07-29T00:50:19;6.55;;;2.33;;
66494;SDS011;53319;51.982;5.916;2022-07-29T00:52:48;4.07;;;1.80;;
66494;SDS011;53319;51.982;5.916;2022-07-29T00:55:18;3.17;;;2.00;;
66494;SDS011;53319;51.982;5.916;2022-07-29T00:57:48;4.10;;;1.95;;
66494;SDS011;53319;51.982;5.916;2022-07-29T01:00:18;4.93;;;1.80;;
66494;SDS011;53319;51.982;5.916;2022-07-29T01:02:51;6.75;;;2.30;;
66494;SDS011;53319;51.982;5.916;2022-07-29T01:05:20;6.03;;;2.20;;
66494;SDS011;53319;51.982;5.916;2022-07-29T01:07:52;5.22;;;2.10;;
66494;SDS011;53319;51.982;5.916;2022-07-29T01:10:22;4.00;;;1.90;;
66494;SDS011;53319;51.982;5.916;2022-07-29T01:12:52;5.40;;;2.30;;
66494;SDS011;53319;51.982;5.916;2022-07-29T01:15:23;4.90;;;1.90;;
66494;SDS011;53319;51.982;5.916;2022-07-29T01:17:57;5.55;;;2.47;;
66494;SDS011;53319;51.982;5.916;2022-07-29T01:20:31;3.63;;;2.40;;
66494;SDS011;53319;51.982;5.916;2022-07-29T01:23:19;7.05;;;2.33;;
66494;SDS011;53319;51.982;5.916;2022-07-29T01:26:04;3.20;;;2.50;;
66494;SDS011;53319;51.982;5.916;2022-07-29T01:29:02;5.47;;;2.53;;
66494;SDS011;53319;51.982;5.916;2022-07-29T01:31:42;4.10;;;2.30;;
66494;SDS011;53319;51.982;5.916;2022-07-29T01:34:15;6.10;;;2.40;;
66494;SDS011;53319;51.982;5.916;2022-07-29T01:36:51;5.35;;;2.50;;
66494;SDS011;53319;51.982;5.916;2022-07-29T01:39:29;5.63;;;2.42;;
66494;SDS011;53319;51.982;5.916;2022-07-29T01:42:01;6.10;;;2.78;;
66494;SDS011;53319;51.982;5.916;2022-07-29T01:44:41;6.07;;;2.22;;
66494;SDS011;53319;51.982;5.916;2022-07-29T01:47:17;5.00;;;2.40;;
66494;SDS011;53319;51.982;5.916;2022-07-29T01:49:50;10.77;;;2.40;;
66494;SDS011;53319;51.982;5.916;2022-07-29T01:52:23;5.10;;;2.30;;
66494;SDS011;53319;51.982;5.916;2022-07-29T01:54:57;4.03;;;2.13;;
66494;SDS011;53319;51.982;5.916;2022-07-29T01:57:30;4.70;;;2.17;;
66494;SDS011;53319;51.982;5.916;2022-07-29T02:00:05;5.32;;;2.03;;
66494;SDS011;53319;51.982;5.916;2022-07-29T02:02:38;4.53;;;2.35;;
66494;SDS011;53319;51.982;5.916;2022-07-29T02:05:11;5.85;;;2.15;;
66494;SDS011;53319;51.982;5.916;2022-07-29T02:07:43;4.63;;;2.10;;
66494;SDS011;53319;51.982;5.916;2022-07-29T02:10:14;3.83;;;2.08;;
66494;SDS011;53319;51.982;5.916;2022-07-29T02:12:47;3.80;;;2.10;;
66494;SDS011;53319;51.982;5.916;2022-07-29T02:15:20;7.60;;;2.30;;
66494;SDS011;53319;51.982;5.916;2022-07-29T02:17:53;5.38;;;2.30;;
66494;SDS011;53319;51.982;5.916;2022-07-29T02:20:24;3.97;;;1.83;;
66494;SDS011;53319;51.982;5.916;2022-07-29T02:22:54;8.05;;;2.70;;
66494;SDS011;53319;51.982;5.916;2022-07-29T02:25:25;3.88;;;2.10;;
66494;SDS011;53319;51.982;5.916;2022-07-29T02:27:56;3.88;;;2.20;;
66494;SDS011;53319;51.982;5.916;2022-07-29T02:30:30;4.72;;;2.33;;
66494;SDS011;53319;51.982;5.916;2022-07-29T02:33:00;7.32;;;2.30;;
66494;SDS011;53319;51.982;5.916;2022-07-29T02:35:31;3.92;;;2.42;;
66494;SDS011;53319;51.982;5.916;2022-07-29T02:38:00;5.45;;;2.30;;
66494;SDS011;53319;51.982;5.916;2022-07-29T02:40:43;4.00;;;2.53;;
66494;SDS011;53319;51.982;5.916;2022-07-29T02:43:13;5.13;;;2.55;;
66494;SDS011;53319;51.982;5.916;2022-07-29T02:45:46;5.82;;;2.63;;
66494;SDS011;53319;51.982;5.916;2022-07-29T02:48:18;7.43;;;2.33;;
66494;SDS011;53319;51.982;5.916;2022-07-29T02:50:52;5.60;;;2.60;;
66494;SDS011;53319;51.982;5.916;2022-07-29T02:53:26;5.88;;;2.33;;
66494;SDS011;53319;51.982;5.916;2022-07-29T02:55:58;7.20;;;2.97;;
66494;SDS011;53319;51.982;5.916;2022-07-29T02:58:30;5.93;;;3.38;;
66494;SDS011;53319;51.982;5.916;2022-07-29T03:01:08;4.18;;;2.55;;
66494;SDS011;53319;51.982;5.916;2022-07-29T03:03:42;6.72;;;3.08;;
66494;SDS011;53319;51.982;5.916;2022-07-29T03:06:13;5.45;;;3.00;;
66494;SDS011;53319;51.982;5.916;2022-07-29T03:08:43;6.50;;;2.80;;
66494;SDS011;53319;51.982;5.916;2022-07-29T03:11:14;7.30;;;3.30;;
66494;SDS011;53319;51.982;5.916;2022-07-29T03:13:45;4.50;;;2.90;;
66494;SDS011;53319;51.982;5.916;2022-07-29T03:16:16;4.20;;;2.88;;
66494;SDS011;53319;51.982;5.916;2022-07-29T03:18:49;4.72;;;3.10;;
66494;SDS011;53319;51.982;5.916;2022-07-29T03:21:18;6.00;;;3.55;;
66494;SDS011;53319;51.982;5.916;2022-07-29T03:23:47;7.07;;;3.50;;
66494;SDS011;53319;51.982;5.916;2022-07-29T03:26:16;5.95;;;3.80;;
66494;SDS011;53319;51.982;5.916;2022-07-29T03:28:47;7.35;;;3.47;;
66494;SDS011;53319;51.982;5.916;2022-07-29T03:31:18;7.05;;;4.15;;
66494;SDS011;53319;51.982;5.916;2022-07-29T03:33:47;6.93;;;4.38;;
66494;SDS011;53319;51.982;5.916;2022-07-29T03:36:16;6.75;;;4.47;;
66494;SDS011;53319;51.982;5.916;2022-07-29T03:38:45;7.07;;;4.63;;
66494;SDS011;53319;51.982;5.916;2022-07-29T03:41:15;6.18;;;4.18;;
66494;SDS011;53319;51.982;5.916;2022-07-29T03:43:46;6.40;;;4.28;;
66494;SDS011;53319;51.982;5.916;2022-07-29T03:46:20;6.88;;;4.10;;
66494;SDS011;53319;51.982;5.916;2022-07-29T03:48:52;9.32;;;4.57;;
66494;SDS011;53319;51.982;5.916;2022-07-29T03:51:26;6.45;;;4.13;;
66494;SDS011;53319;51.982;5.916;2022-07-29T03:53:55;5.80;;;4.05;;
66494;SDS011;53319;51.982;5.916;2022-07-29T03:56:25;8.38;;;4.43;;
66494;SDS011;53319;51.982;5.916;2022-07-29T03:58:56;8.05;;;4.13;;
66494;SDS011;53319;51.982;5.916;2022-07-29T04:01:28;6.18;;;4.32;;
66494;SDS011;53319;51.982;5.916;2022-07-29T04:03:58;6.17;;;4.43;;
66494;SDS011;53319;51.982;5.916;2022-07-29T04:06:27;9.18;;;4.72;;
66494;SDS011;53319;51.982;5.916;2022-07-29T04:08:56;5.55;;;4.70;;
66494;SDS011;53319;51.982;5.916;2022-07-29T04:11:25;8.65;;;4.55;;
66494;SDS011;53319;51.982;5.916;2022-07-29T04:13:54;7.90;;;4.78;;
66494;SDS011;53319;51.982;5.916;2022-07-29T04:16:23;8.40;;;5.05;;
66494;SDS011;53319;51.982;5.916;2022-07-29T04:18:54;8.70;;;5.05;;
66494;SDS011;53319;51.982;5.916;2022-07-29T04:21:23;8.98;;;5.05;;
66494;SDS011;53319;51.982;5.916;2022-07-29T04:23:52;7.88;;;4.97;;
66494;SDS011;53319;51.982;5.916;2022-07-29T04:26:21;7.40;;;4.45;;
66494;SDS011;53319;51.982;5.916;2022-07-29T04:28:50;8.40;;;4.82;;
66494;SDS011;53319;51.982;5.916;2022-07-29T04:31:18;8.05;;;5.38;;
66494;SDS011;53319;51.982;5.916;2022-07-29T04:33:47;9.75;;;4.65;;
66494;SDS011;53319;51.982;5.916;2022-07-29T04:36:19;7.55;;;5.25;;
66494;SDS011;53319;51.982;5.916;2022-07-29T04:38:48;7.53;;;4.97;;
66494;SDS011;53319;51.982;5.916;2022-07-29T04:41:17;6.18;;;4.57;;
66494;SDS011;53319;51.982;5.916;2022-07-29T04:43:45;6.80;;;5.15;;
66494;SDS011;53319;51.982;5.916;2022-07-29T04:46:14;6.25;;;4.80;;
66494;SDS011;53319;51.982;5.916;2022-07-29T04:48:44;13.10;;;5.03;;
66494;SDS011;53319;51.982;5.916;2022-07-29T04:51:14;6.22;;;4.70;;
66494;SDS011;53319;51.982;5.916;2022-07-29T04:53:45;6.10;;;4.80;;
66494;SDS011;53319;51.982;5.916;2022-07-29T04:56:14;6.20;;;4.80;;
66494;SDS011;53319;51.982;5.916;2022-07-29T04:58:43;6.40;;;4.68;;
66494;SDS011;53319;51.982;5.916;2022-07-29T05:01:12;6.90;;;4.95;;
66494;SDS011;53319;51.982;5.916;2022-07-29T05:03:40;8.23;;;4.03;;
66494;SDS011;53319;51.982;5.916;2022-07-29T05:06:10;6.22;;;4.35;;
66494;SDS011;53319;51.982;5.916;2022-07-29T05:08:39;8.05;;;4.30;;
66494;SDS011;53319;51.982;5.916;2022-07-29T05:11:11;7.82;;;4.78;;
66494;SDS011;53319;51.982;5.916;2022-07-29T05:13:40;7.05;;;4.50;;
66494;SDS011;53319;51.982;5.916;2022-07-29T05:16:08;6.68;;;4.40;;
66494;SDS011;53319;51.982;5.916;2022-07-29T05:18:38;6.35;;;4.38;;
66494;SDS011;53319;51.982;5.916;2022-07-29T05:21:07;7.63;;;4.50;;
66494;SDS011;53319;51.982;5.916;2022-07-29T05:23:37;5.90;;;4.63;;
66494;SDS011;53319;51.982;5.916;2022-07-29T05:26:06;6.95;;;4.43;;
66494;SDS011;53319;51.982;5.916;2022-07-29T05:28:37;9.30;;;4.80;;
66494;SDS011;53319;51.982;5.916;2022-07-29T05:31:06;5.82;;;4.35;;
66494;SDS011;53319;51.982;5.916;2022-07-29T05:33:35;5.50;;;4.28;;
66494;SDS011;53319;51.982;5.916;2022-07-29T05:36:04;6.53;;;4.72;;
66494;SDS011;53319;51.982;5.916;2022-07-29T05:38:33;6.20;;;4.22;;
66494;SDS011;53319;51.982;5.916;2022-07-29T05:41:02;8.48;;;4.57;;
66494;SDS011;53319;51.982;5.916;2022-07-29T05:43:32;6.43;;;4.05;;
66494;SDS011;53319;51.982;5.916;2022-07-29T05:46:04;6.65;;;4.38;;
66494;SDS011;53319;51.982;5.916;2022-07-29T05:48:32;7.93;;;4.72;;
66494;SDS011;53319;51.982;5.916;2022-07-29T05:51:01;7.15;;;4.80;;
66494;SDS011;53319;51.982;5.916;2022-07-29T05:53:30;7.82;;;4.85;;
66494;SDS011;53319;51.982;5.916;2022-07-29T05:56:02;8.50;;;5.03;;
66494;SDS011;53319;51.982;5.916;2022-07-29T05:58:32;7.45;;;4.90;;
66494;SDS011;53319;51.982;5.916;2022-07-29T06:01:04;7.00;;;4.90;;
66494;SDS011;53319;51.982;5.916;2022-07-29T06:03:33;10.65;;;5.72;;
66494;SDS011;53319;51.982;5.916;2022-07-29T06:06:03;7.32;;;5.18;;
66494;SDS011;53319;51.982;5.916;2022-07-29T06:08:32;7.50;;;4.93;;
66494;SDS011;53319;51.982;5.916;2022-07-29T06:11:02;8.30;;;5.47;;
66494;SDS011;53319;51.982;5.916;2022-07-29T06:16:06;8.00;;;5.00;;
66494;SDS011;53319;51.982;5.916;2022-07-29T06:18:35;7.32;;;5.20;;
66494;SDS011;53319;51.982;5.916;2022-07-29T06:21:06;6.50;;;4.50;;
66494;SDS011;53319;51.982;5.916;2022-07-29T06:23:36;7.05;;;4.70;;
66494;SDS011;53319;51.982;5.916;2022-07-29T06:26:05;6.13;;;4.55;;
66494;SDS011;53319;51.982;5.916;2022-07-29T06:28:34;6.25;;;4.80;;
66494;SDS011;53319;51.982;5.916;2022-07-29T06:31:06;7.13;;;4.80;;
66494;SDS011;53319;51.982;5.916;2022-07-29T06:33:35;9.18;;;4.65;;
66494;SDS011;53319;51.982;5.916;2022-07-29T06:36:04;6.53;;;4.53;;
66494;SDS011;53319;51.982;5.916;2022-07-29T06:38:33;7.13;;;4.40;;
66494;SDS011;53319;51.982;5.916;2022-07-29T06:41:03;6.88;;;4.65;;
66494;SDS011;53319;51.982;5.916;2022-07-29T06:43:39;7.78;;;4.95;;
66494;SDS011;53319;51.982;5.916;2022-07-29T06:46:11;8.77;;;4.15;;
66494;SDS011;53319;51.982;5.916;2022-07-29T06:48:43;7.47;;;4.43;;
66494;SDS011;53319;51.982;5.916;2022-07-29T06:51:13;6.30;;;4.13;;
66494;SDS011;53319;51.982;5.916;2022-07-29T06:53:42;6.78;;;4.20;;
66494;SDS011;53319;51.982;5.916;2022-07-29T06:56:11;6.15;;;3.40;;
66494;SDS011;53319;51.982;5.916;2022-07-29T06:58:40;5.18;;;4.07;;
66494;SDS011;53319;51.982;5.916;2022-07-29T07:01:12;6.60;;;3.78;;
66494;SDS011;53319;51.982;5.916;2022-07-29T07:03:41;7.90;;;4.10;;
66494;SDS011;53319;51.982;5.916;2022-07-29T07:06:10;7.95;;;3.65;;
66494;SDS011;53319;51.982;5.916;2022-07-29T07:08:39;7.63;;;3.92;;
66494;SDS011;53319;51.982;5.916;2022-07-29T07:11:08;8.18;;;3.75;;
66494;SDS011;53319;51.982;5.916;2022-07-29T07:13:37;8.05;;;4.20;;
66494;SDS011;53319;51.982;5.916;2022-07-29T07:16:06;6.45;;;4.03;;
66494;SDS011;53319;51.982;5.916;2022-07-29T07:18:37;6.82;;;3.80;;
66494;SDS011;53319;51.982;5.916;2022-07-29T07:21:06;5.28;;;3.92;;
66494;SDS011;53319;51.982;5.916;2022-07-29T07:23:35;8.65;;;3.95;;
66494;SDS011;53319;51.982;5.916;2022-07-29T07:26:04;8.73;;;3.95;;
66494;SDS011;53319;51.982;5.916;2022-07-29T07:28:33;8.00;;;4.20;;
66494;SDS011;53319;51.982;5.916;2022-07-29T07:31:02;6.63;;;3.92;;
66494;SDS011;53319;51.982;5.916;2022-07-29T07:33:31;7.63;;;4.43;;
66494;SDS011;53319;51.982;5.916;2022-07-29T07:36:02;6.60;;;4.22;;
66494;SDS011;53319;51.982;5.916;2022-07-29T07:38:31;8.70;;;3.90;;
66494;SDS011;53319;51.982;5.916;2022-07-29T07:41:01;5.80;;;3.72;;
66494;SDS011;53319;51.982;5.916;2022-07-29T07:43:30;9.15;;;4.60;;
66494;SDS011;53319;51.982;5.916;2022-07-29T07:45:58;7.93;;;4.10;;
66494;SDS011;53319;51.982;5.916;2022-07-29T07:48:27;7.80;;;4.20;;
66494;SDS011;53319;51.982;5.916;2022-07-29T07:50:56;5.80;;;3.90;;
66494;SDS011;53319;51.982;5.916;2022-07-29T07:53:28;6.13;;;4.28;;
66494;SDS011;53319;51.982;5.916;2022-07-29T07:55:57;5.90;;;3.90;;
66494;SDS011;53319;51.982;5.916;2022-07-29T07:58:26;7.05;;;4.18;;
66494;SDS011;53319;51.982;5.916;2022-07-29T08:00:55;6.63;;;4.20;;
66494;SDS011;53319;51.982;5.916;2022-07-29T08:03:24;5.40;;;4.05;;
66494;SDS011;53319;51.982;5.916;2022-07-29T08:05:52;9.02;;;4.60;;
66494;SDS011;53319;51.982;5.916;2022-07-29T08:08:21;8.52;;;4.05;;
66494;SDS011;53319;51.982;5.916;2022-07-29T08:10:53;10.07;;;4.28;;
66494;SDS011;53319;51.982;5.916;2022-07-29T08:13:23;7.45;;;4.15;;
66494;SDS011;53319;51.982;5.916;2022-07-29T08:15:54;5.95;;;3.80;;
66494;SDS011;53319;51.982;5.916;2022-07-29T08:18:27;7.75;;;3.70;;
66494;SDS011;53319;51.982;5.916;2022-07-29T08:20:57;12.48;;;4.80;;
66494;SDS011;53319;51.982;5.916;2022-07-29T08:23:26;7.78;;;4.43;;
66494;SDS011;53319;51.982;5.916;2022-07-29T08:26:03;5.93;;;4.00;;
66494;SDS011;53319;51.982;5.916;2022-07-29T08:28:36;6.65;;;4.38;;
66494;SDS011;53319;51.982;5.916;2022-07-29T08:31:05;6.20;;;3.90;;
66494;SDS011;53319;51.982;5.916;2022-07-29T08:33:34;8.57;;;3.97;;
66494;SDS011;53319;51.982;5.916;2022-07-29T08:36:04;6.85;;;4.40;;
66494;SDS011;53319;51.982;5.916;2022-07-29T08:38:33;5.97;;;4.38;;
66494;SDS011;53319;51.982;5.916;2022-07-29T08:41:05;6.93;;;4.07;;
66494;SDS011;53319;51.982;5.916;2022-07-29T08:43:34;6.03;;;4.05;;
66494;SDS011;53319;51.982;5.916;2022-07-29T08:46:03;9.20;;;4.10;;
66494;SDS011;53319;51.982;5.916;2022-07-29T08:48:32;6.47;;;3.80;;
66494;SDS011;53319;51.982;5.916;2022-07-29T08:51:02;5.32;;;3.55;;
66494;SDS011;53319;51.982;5.916;2022-07-29T08:53:32;6.65;;;3.97;;
66494;SDS011;53319;51.982;5.916;2022-07-29T08:56:06;6.90;;;4.15;;
66494;SDS011;53319;51.982;5.916;2022-07-29T08:58:35;10.23;;;4.70;;
66494;SDS011;53319;51.982;5.916;2022-07-29T09:01:04;7.25;;;4.22;;
66494;SDS011;53319;51.982;5.916;2022-07-29T09:03:36;9.50;;;4.40;;
66494;SDS011;53319;51.982;5.916;2022-07-29T09:06:05;7.20;;;4.07;;
66494;SDS011;53319;51.982;5.916;2022-07-29T09:08:34;6.82;;;3.80;;
66494;SDS011;53319;51.982;5.916;2022-07-29T09:11:06;8.10;;;4.40;;
66494;SDS011;53319;51.982;5.916;2022-07-29T09:13:36;5.88;;;4.32;;
66494;SDS011;53319;51.982;5.916;2022-07-29T09:16:05;9.43;;;4.40;;
66494;SDS011;53319;51.982;5.916;2022-07-29T09:18:36;8.30;;;3.75;;
66494;SDS011;53319;51.982;5.916;2022-07-29T09:21:07;6.40;;;3.83;;
66494;SDS011;53319;51.982;5.916;2022-07-29T09:23:59;5.97;;;4.35;;
66494;SDS011;53319;51.982;5.916;2022-07-29T09:26:32;7.13;;;4.30;;
66494;SDS011;53319;51.982;5.916;2022-07-29T09:29:09;7.45;;;4.00;;
66494;SDS011;53319;51.982;5.916;2022-07-29T09:31:41;6.95;;;3.97;;
66494;SDS011;53319;51.982;5.916;2022-07-29T09:34:13;9.63;;;5.68;;
66494;SDS011;53319;51.982;5.916;2022-07-29T09:36:43;7.30;;;4.78;;
66494;SDS011;53319;51.982;5.916;2022-07-29T09:39:13;12.93;;;4.80;;
66494;SDS011;53319;51.982;5.916;2022-07-29T09:41:46;12.02;;;4.55;;
66494;SDS011;53319;51.982;5.916;2022-07-29T09:44:18;6.85;;;4.70;;
66494;SDS011;53319;51.982;5.916;2022-07-29T09:46:57;6.15;;;4.70;;
66494;SDS011;53319;51.982;5.916;2022-07-29T09:49:31;5.15;;;4.15;;
66494;SDS011;53319;51.982;5.916;2022-07-29T09:52:04;7.22;;;4.00;;
66494;SDS011;53319;51.982;5.916;2022-07-29T09:54:35;6.82;;;4.50;;
66494;SDS011;53319;51.982;5.916;2022-07-29T09:57:08;5.60;;;4.57;;
66494;SDS011;53319;51.982;5.916;2022-07-29T09:59:55;7.18;;;4.07;;
66494;SDS011;53319;51.982;5.916;2022-07-29T10:02:28;8.27;;;4.72;;
66494;SDS011;53319;51.982;5.916;2022-07-29T10:04:59;6.28;;;4.35;;
66494;SDS011;53319;51.982;5.916;2022-07-29T10:07:42;6.90;;;4.85;;
66494;SDS011;53319;51.982;5.916;2022-07-29T10:10:17;6.78;;;4.45;;
66494;SDS011;53319;51.982;5.916;2022-07-29T10:12:51;7.82;;;4.38;;
66494;SDS011;53319;51.982;5.916;2022-07-29T10:15:22;9.38;;;4.50;;
66494;SDS011;53319;51.982;5.916;2022-07-29T10:17:53;8.43;;;4.60;;
66494;SDS011;53319;51.982;5.916;2022-07-29T10:20:23;5.97;;;4.43;;
66494;SDS011;53319;51.982;5.916;2022-07-29T10:22:53;5.68;;;4.40;;
66494;SDS011;53319;51.982;5.916;2022-07-29T10:25:22;7.43;;;4.38;;
66494;SDS011;53319;51.982;5.916;2022-07-29T10:27:54;7.28;;;3.63;;
66494;SDS011;53319;51.982;5.916;2022-07-29T10:30:24;8.60;;;4.00;;
66494;SDS011;53319;51.982;5.916;2022-07-29T10:33:13;7.78;;;4.80;;
66494;SDS011;53319;51.982;5.916;2022-07-29T10:36:02;6.03;;;4.10;;
66494;SDS011;53319;51.982;5.916;2022-07-29T10:38:41;7.22;;;4.28;;
66494;SDS011;53319;51.982;5.916;2022-07-29T10:41:22;5.80;;;4.03;;
66494;SDS011;53319;51.982;5.916;2022-07-29T10:44:16;5.20;;;4.03;;
66494;SDS011;53319;51.982;5.916;2022-07-29T10:46:46;9.40;;;4.10;;
66494;SDS011;53319;51.982;5.916;2022-07-29T10:49:16;6.72;;;3.92;;
66494;SDS011;53319;51.982;5.916;2022-07-29T10:51:56;6.88;;;3.72;;
66494;SDS011;53319;51.982;5.916;2022-07-29T10:54:44;7.95;;;3.78;;
66494;SDS011;53319;51.982;5.916;2022-07-29T10:57:19;6.55;;;3.80;;
66494;SDS011;53319;51.982;5.916;2022-07-29T11:02:55;7.20;;;3.70;;
66494;SDS011;53319;51.982;5.916;2022-07-29T11:05:24;7.45;;;3.90;;
66494;SDS011;53319;51.982;5.916;2022-07-29T11:10:47;6.00;;;3.83;;
66494;SDS011;53319;51.982;5.916;2022-07-29T11:16:19;6.53;;;3.83;;
66494;SDS011;53319;51.982;5.916;2022-07-29T11:21:54;5.65;;;3.63;;
66494;SDS011;53319;51.982;5.916;2022-07-29T11:24:24;8.75;;;3.90;;
66494;SDS011;53319;51.982;5.916;2022-07-29T11:27:06;4.63;;;3.50;;
66494;SDS011;53319;51.982;5.916;2022-07-29T11:29:40;6.60;;;3.88;;
66494;SDS011;53319;51.982;5.916;2022-07-29T11:32:19;7.70;;;3.67;;
66494;SDS011;53319;51.982;5.916;2022-07-29T11:34:57;19.15;;;4.78;;
66494;SDS011;53319;51.982;5.916;2022-07-29T11:37:42;40.75;;;6.18;;
66494;SDS011;53319;51.982;5.916;2022-07-29T11:40:15;11.95;;;3.75;;
66494;SDS011;53319;51.982;5.916;2022-07-29T11:42:45;4.15;;;3.30;;
66494;SDS011;53319;51.982;5.916;2022-07-29T11:45:16;8.50;;;3.78;;
66494;SDS011;53319;51.982;5.916;2022-07-29T11:47:47;7.82;;;3.70;;
66494;SDS011;53319;51.982;5.916;2022-07-29T11:50:29;6.47;;;3.27;;
66494;SDS011;53319;51.982;5.916;2022-07-29T11:53:00;6.78;;;3.10;;
66494;SDS011;53319;51.982;5.916;2022-07-29T11:55:29;7.35;;;3.10;;
66494;SDS011;53319;51.982;5.916;2022-07-29T11:58:01;4.77;;;2.57;;
66494;SDS011;53319;51.982;5.916;2022-07-29T12:00:31;5.78;;;2.38;;
66494;SDS011;53319;51.982;5.916;2022-07-29T12:03:02;4.10;;;2.70;;
66494;SDS011;53319;51.982;5.916;2022-07-29T12:05:39;9.32;;;2.92;;
66494;SDS011;53319;51.982;5.916;2022-07-29T12:08:11;6.32;;;2.60;;
66494;SDS011;53319;51.982;5.916;2022-07-29T12:10:44;6.07;;;3.03;;
66494;SDS011;53319;51.982;5.916;2022-07-29T12:13:15;6.05;;;2.65;;
66494;SDS011;53319;51.982;5.916;2022-07-29T12:15:51;6.30;;;2.90;;
66494;SDS011;53319;51.982;5.916;2022-07-29T12:18:21;13.10;;;3.40;;
66494;SDS011;53319;51.982;5.916;2022-07-29T12:20:59;5.25;;;2.63;;
66494;SDS011;53319;51.982;5.916;2022-07-29T12:23:29;8.63;;;2.63;;
66494;SDS011;53319;51.982;5.916;2022-07-29T12:25:58;15.07;;;3.45;;
66494;SDS011;53319;51.982;5.916;2022-07-29T12:28:27;5.93;;;3.13;;
66494;SDS011;53319;51.982;5.916;2022-07-29T12:30:56;8.68;;;2.75;;
66494;SDS011;53319;51.982;5.916;2022-07-29T12:33:26;10.00;;;2.75;;
66494;SDS011;53319;51.982;5.916;2022-07-29T12:35:59;7.32;;;3.13;;
66494;SDS011;53319;51.982;5.916;2022-07-29T12:38:29;5.80;;;2.85;;
66494;SDS011;53319;51.982;5.916;2022-07-29T12:40:58;5.40;;;3.10;;
66494;SDS011;53319;51.982;5.916;2022-07-29T12:43:29;9.05;;;3.20;;
66494;SDS011;53319;51.982;5.916;2022-07-29T12:46:10;31.83;;;4.65;;
66494;SDS011;53319;51.982;5.916;2022-07-29T12:48:41;4.22;;;2.97;;
66494;SDS011;53319;51.982;5.916;2022-07-29T12:51:14;7.07;;;2.80;;
66494;SDS011;53319;51.982;5.916;2022-07-29T12:56:30;4.60;;;2.90;;
66494;SDS011;53319;51.982;5.916;2022-07-29T12:58:59;4.78;;;2.53;;
66494;SDS011;53319;51.982;5.916;2022-07-29T13:01:40;5.63;;;2.80;;
66494;SDS011;53319;51.982;5.916;2022-07-29T13:04:09;5.45;;;2.42;;
66494;SDS011;53319;51.982;5.916;2022-07-29T13:06:41;4.78;;;2.28;;
66494;SDS011;53319;51.982;5.916;2022-07-29T13:09:11;3.78;;;2.42;;
66494;SDS011;53319;51.982;5.916;2022-07-29T13:11:42;3.17;;;2.33;;
66494;SDS011;53319;51.982;5.916;2022-07-29T13:14:13;3.47;;;2.33;;
66494;SDS011;53319;51.982;5.916;2022-07-29T13:19:35;3.88;;;2.33;;
66494;SDS011;53319;51.982;5.916;2022-07-29T13:22:11;5.05;;;2.22;;
66494;SDS011;53319;51.982;5.916;2022-07-29T13:24:46;4.55;;;2.80;;
66494;SDS011;53319;51.982;5.916;2022-07-29T13:27:16;5.57;;;2.70;;
66494;SDS011;53319;51.982;5.916;2022-07-29T13:29:45;5.97;;;2.08;;
66494;SDS011;53319;51.982;5.916;2022-07-29T13:32:17;4.43;;;2.47;;
66494;SDS011;53319;51.982;5.916;2022-07-29T13:34:46;5.13;;;2.75;;
66494;SDS011;53319;51.982;5.916;2022-07-29T13:37:18;6.38;;;2.78;;
66494;SDS011;53319;51.982;5.916;2022-07-29T13:39:46;6.97;;;2.67;;
66494;SDS011;53319;51.982;5.916;2022-07-29T13:42:15;4.72;;;2.15;;
66494;SDS011;53319;51.982;5.916;2022-07-29T13:44:44;4.28;;;2.30;;
66494;SDS011;53319;51.982;5.916;2022-07-29T13:47:14;4.97;;;2.33;;
66494;SDS011;53319;51.982;5.916;2022-07-29T13:49:43;6.60;;;2.40;;
66494;SDS011;53319;51.982;5.916;2022-07-29T13:52:12;5.93;;;2.47;;
66494;SDS011;53319;51.982;5.916;2022-07-29T13:54:43;2.65;;;1.98;;
66494;SDS011;53319;51.982;5.916;2022-07-29T13:57:12;3.85;;;2.20;;
66494;SDS011;53319;51.982;5.916;2022-07-29T13:59:42;4.50;;;2.47;;
66494;SDS011;53319;51.982;5.916;2022-07-29T14:02:11;4.25;;;2.40;;
66494;SDS011;53319;51.982;5.916;2022-07-29T14:04:40;5.15;;;2.55;;
66494;SDS011;53319;51.982;5.916;2022-07-29T14:07:09;3.83;;;2.40;;
66494;SDS011;53319;51.982;5.916;2022-07-29T14:09:38;6.85;;;2.58;;
66494;SDS011;53319;51.982;5.916;2022-07-29T14:12:10;3.08;;;2.03;;
66494;SDS011;53319;51.982;5.916;2022-07-29T14:14:39;2.80;;;2.03;;
66494;SDS011;53319;51.982;5.916;2022-07-29T14:17:08;7.95;;;2.50;;
66494;SDS011;53319;51.982;5.916;2022-07-29T14:19:37;2.92;;;2.40;;
66494;SDS011;53319;51.982;5.916;2022-07-29T14:22:07;3.70;;;2.50;;
66494;SDS011;53319;51.982;5.916;2022-07-29T14:24:36;22.95;;;3.97;;
66494;SDS011;53319;51.982;5.916;2022-07-29T14:27:06;2.53;;;2.00;;
66494;SDS011;53319;51.982;5.916;2022-07-29T14:29:38;4.82;;;2.20;;
66494;SDS011;53319;51.982;5.916;2022-07-29T14:32:07;3.05;;;2.20;;
66494;SDS011;53319;51.982;5.916;2022-07-29T14:34:37;5.10;;;2.17;;
66494;SDS011;53319;51.982;5.916;2022-07-29T14:37:06;4.10;;;2.20;;
66494;SDS011;53319;51.982;5.916;2022-07-29T14:39:35;5.07;;;2.60;;
66494;SDS011;53319;51.982;5.916;2022-07-29T14:42:04;4.80;;;2.15;;
66494;SDS011;53319;51.982;5.916;2022-07-29T14:44:34;4.50;;;2.67;;
66494;SDS011;53319;51.982;5.916;2022-07-29T14:47:05;4.28;;;2.30;;
66494;SDS011;53319;51.982;5.916;2022-07-29T14:49:34;2.50;;;1.98;;
66494;SDS011;53319;51.982;5.916;2022-07-29T14:52:04;3.90;;;2.47;;
66494;SDS011;53319;51.982;5.916;2022-07-29T14:54:33;4.05;;;2.35;;
66494;SDS011;53319;51.982;5.916;2022-07-29T14:57:02;7.32;;;2.58;;
66494;SDS011;53319;51.982;5.916;2022-07-29T14:59:31;4.35;;;2.60;;
66494;SDS011;53319;51.982;5.916;2022-07-29T15:02:00;3.50;;;2.45;;
66494;SDS011;53319;51.982;5.916;2022-07-29T15:04:31;3.10;;;2.40;;
66494;SDS011;53319;51.982;5.916;2022-07-29T15:07:00;6.30;;;2.50;;
66494;SDS011;53319;51.982;5.916;2022-07-29T15:09:29;6.45;;;2.80;;
66494;SDS011;53319;51.982;5.916;2022-07-29T15:11:58;4.53;;;2.50;;
66494;SDS011;53319;51.982;5.916;2022-07-29T15:14:28;6.00;;;2.70;;
66494;SDS011;53319;51.982;5.916;2022-07-29T15:16:57;3.83;;;2.50;;
66494;SDS011;53319;51.982;5.916;2022-07-29T15:19:26;6.15;;;3.35;;
66494;SDS011;53319;51.982;5.916;2022-07-29T15:21:57;5.25;;;2.67;;
66494;SDS011;53319;51.982;5.916;2022-07-29T15:24:26;6.57;;;2.80;;
66494;SDS011;53319;51.982;5.916;2022-07-29T15:26:55;4.50;;;2.58;;
66494;SDS011;53319;51.982;5.916;2022-07-29T15:29:24;8.82;;;4.65;;
66494;SDS011;53319;51.982;5.916;2022-07-29T15:31:53;7.25;;;3.17;;